Time;durP1;ratioP1;P1;durP2;ratioP2;P2;SDS_P1;SDS_P2;PMS_P1;PMS_P2;Temp;Humidity;BMP_temperature;BMP_pressure;BME280_temperature;BME280_humidity;BME280_pressure;Samples;Min_cycle;Max_cycle;Signal;HPM_P1;HPM_P2
2021/08/12 00:01:19;;;;;;;16.02;11.68;;;;;;;15.55;82.26;101996.47;5060939;28;20024;-75
2021/08/12 00:03:45;;;;;;;16.13;12.52;;;;;;;15.57;82.73;101995.53;5059009;28;20235;-75
2021/08/12 00:06:10;;;;;;;14.60;12.48;;;;;;;15.65;82.58;101994.28;5089179;28;20288;-75
2021/08/12 00:08:36;;;;;;;16.48;13.25;;;;;;;15.61;82.53;101995.34;5081602;28;20342;-75
2021/08/12 00:11:01;;;;;;;19.40;12.70;;;;;;;15.58;82.93;101986.69;5071219;28;20038;-75
2021/08/12 00:13:27;;;;;;;17.55;13.45;;;;;;;15.65;83.13;101982.84;5069835;28;20103;-75
2021/08/12 00:15:52;;;;;;;16.02;12.23;;;;;;;15.64;82.49;101984.63;5090746;28;20263;-75
2021/08/12 00:18:18;;;;;;;14.52;11.48;;;;;;;15.44;82.97;101998.69;5066368;28;20024;-75
2021/08/12 00:20:43;;;;;;;16.70;11.15;;;;;;;15.44;82.59;101997.84;5087823;28;20044;-75
2021/08/12 00:23:09;;;;;;;15.02;10.73;;;;;;;15.40;82.87;101997.09;5062845;28;20032;-76
2021/08/12 00:25:34;;;;;;;15.23;10.20;;;;;;;15.38;83.30;101992.81;5063834;28;20048;-75
2021/08/12 00:28:00;;;;;;;12.18;11.02;;;;;;;15.44;83.68;101993.41;5045531;28;20032;-75
2021/08/12 00:30:25;;;;;;;13.93;10.38;;;;;;;15.32;82.94;101978.97;5078995;28;20149;-75
2021/08/12 00:32:51;;;;;;;15.95;11.18;;;;;;;15.58;82.16;101979.63;5070117;28;20101;-75
2021/08/12 00:35:16;;;;;;;16.50;12.15;;;;;;;15.78;81.42;101981.41;5071124;28;20349;-75
2021/08/12 00:37:42;;;;;;;18.38;12.45;;;;;;;15.44;82.88;101977.56;5086852;28;20051;-75
2021/08/12 00:40:07;;;;;;;30.45;13.38;;;;;;;15.49;82.93;101978.22;5070640;28;20036;-75
2021/08/12 00:42:33;;;;;;;21.00;12.50;;;;;;;15.49;83.43;101985.28;5073249;28;20040;-75
2021/08/12 00:44:59;;;;;;;20.45;14.23;;;;;;;15.40;83.67;101989.19;5050616;28;20024;-75
2021/08/12 00:47:24;;;;;;;21.10;13.82;;;;;;;15.45;83.53;101992.50;5054171;28;20123;-75
2021/08/12 00:49:50;;;;;;;23.20;13.68;;;;;;;15.36;83.53;101984.97;5072847;28;20205;-75
2021/08/12 00:52:15;;;;;;;19.25;13.82;;;;;;;15.32;84.35;101986.03;5097285;28;20039;-75
2021/08/12 00:54:40;;;;;;;16.67;14.02;;;;;;;15.40;84.07;101972.50;5090225;28;20040;-76
2021/08/12 00:57:06;;;;;;;15.82;14.13;;;;;;;15.52;83.90;101970.19;5071960;28;20038;-75
2021/08/12 00:59:39;;;;;;;18.83;13.88;;;;;;;15.35;84.68;101960.38;5073492;28;20032;-75
2021/08/12 01:02:39;;;;;;;21.15;14.88;;;;;;;15.30;84.91;101972.91;5062486;28;20036;-75
2021/08/12 01:05:06;;;;;;;25.67;14.85;;;;;;;15.29;84.97;101970.31;5088033;28;20042;-76
2021/08/12 01:07:33;;;;;;;17.75;14.85;;;;;;;15.36;84.98;101964.69;5067444;28;20097;-75
2021/08/12 01:10:06;;;;;;;16.70;13.88;;;;;;;15.37;84.57;101968.19;5077450;28;20091;-75
2021/08/12 01:12:52;;;;;;;19.10;14.13;;;;;;;15.26;84.95;101965.16;5080470;28;20332;-75
2021/08/12 01:15:25;;;;;;;16.75;14.15;;;;;;;15.27;85.21;101964.25;5070245;28;20350;-75
2021/08/12 01:17:54;;;;;;;20.17;13.93;;;;;;;15.16;84.95;101962.06;5079240;28;20021;-75
2021/08/12 01:20:40;;;;;;;19.80;13.90;;;;;;;15.24;84.70;101961.72;5054157;28;20036;-75
2021/08/12 01:23:07;;;;;;;17.65;13.57;;;;;;;15.20;84.42;101968.91;5100665;28;20093;-75
2021/08/12 01:25:33;;;;;;;20.07;14.07;;;;;;;15.21;84.58;101962.72;4999142;28;1174853;-76
2021/08/12 01:28:05;;;;;;;18.67;13.73;;;;;;;15.22;84.98;101969.69;5064118;28;20033;-75
2021/08/12 01:30:33;;;;;;;15.32;13.65;;;;;;;15.27;84.45;101967.75;5035043;28;20077;-75
2021/08/12 01:32:59;;;;;;;;;;;;;;;15.39;84.29;101968.13;5048445;28;20036;-75
2021/08/12 01:35:25;;;;;;;19.83;13.85;;;;;;;15.35;83.97;101975.31;5089272;28;19974;-75
2021/08/12 01:37:57;;;;;;;17.17;14.30;;;;;;;15.32;84.39;101959.63;5083824;28;20215;-75
2021/08/12 01:40:23;;;;;;;17.30;14.02;;;;;;;15.25;84.78;101958.19;5060506;28;20024;-75
2021/08/12 01:42:49;;;;;;;18.92;14.32;;;;;;;15.28;84.66;101950.09;5047187;28;20051;-75
2021/08/12 01:45:15;;;;;;;19.98;13.88;;;;;;;15.27;84.85;101941.34;5050067;28;20024;-75
2021/08/12 01:47:41;;;;;;;20.33;13.05;;;;;;;15.38;84.03;101945.31;5047087;28;20079;-75
2021/08/12 01:50:07;;;;;;;18.63;12.80;;;;;;;15.51;83.02;101943.84;5065071;28;20028;-75
2021/08/12 01:52:34;;;;;;;17.90;14.10;;;;;;;15.32;84.25;101949.94;5049361;28;20105;-75
2021/08/12 01:54:59;;;;;;;21.63;13.85;;;;;;;15.33;83.93;101948.13;5078684;28;20304;-75
2021/08/12 01:57:25;;;;;;;16.98;13.48;;;;;;;15.27;83.77;101951.91;5082678;28;20042;-75
2021/08/12 01:59:50;;;;;;;17.98;11.65;;;;;;;15.00;83.84;101948.66;5083097;28;20028;-75
2021/08/12 02:02:16;;;;;;;14.30;11.88;;;;;;;14.94;84.19;101948.91;5047100;28;20082;-75
2021/08/12 02:04:41;;;;;;;14.75;12.85;;;;;;;15.01;84.82;101937.19;5048874;28;20044;-75
2021/08/12 02:07:07;;;;;;;14.48;12.38;;;;;;;14.86;85.34;101936.06;5050142;28;20225;-75
2021/08/12 02:09:34;;;;;;;17.70;14.07;;;;;;;14.92;85.88;101930.50;5062721;28;20229;-75
2021/08/12 02:12:00;;;;;;;20.08;13.80;;;;;;;15.14;85.43;101921.69;5078987;28;20024;-75
2021/08/12 02:14:25;;;;;;;23.23;14.57;;;;;;;15.15;85.31;101931.31;5082327;28;20059;-75
2021/08/12 02:16:51;;;;;;;21.13;13.75;;;;;;;15.08;85.14;101929.84;5081383;28;20048;-74
2021/08/12 02:19:16;;;;;;;17.17;14.10;;;;;;;15.10;85.76;101923.59;5046175;28;20028;-75
2021/08/12 02:21:44;;;;;;;16.98;14.05;;;;;;;15.14;85.60;101922.53;5080418;28;20338;-75
2021/08/12 02:24:31;;;;;;;18.13;13.73;;;;;;;15.18;85.03;101923.28;5083119;28;20063;-75
2021/08/12 02:27:05;;;;;;;18.92;13.27;;;;;;;15.26;84.74;101915.91;5080404;28;20335;-75
2021/08/12 02:29:31;;;;;;;20.35;13.68;;;;;;;15.28;83.82;101923.72;5046237;28;20065;-75
2021/08/12 02:31:56;;;;;;;16.45;13.88;;;;;;;15.33;84.05;101919.09;5082206;28;20238;-75
2021/08/12 02:34:22;;;;;;;23.90;14.77;;;;;;;15.41;83.17;101914.38;5065829;28;20399;-74
2021/08/12 02:36:47;;;;;;;20.02;14.60;;;;;;;15.31;83.76;101924.44;5055906;28;20028;-75
2021/08/12 02:39:12;;;;;;;21.38;14.40;;;;;;;15.18;84.67;101925.06;5062215;28;20096;-75
2021/08/12 02:41:38;;;;;;;20.85;14.32;;;;;;;15.31;83.82;101923.59;5059878;28;20024;-75
2021/08/12 02:44:03;;;;;;;22.60;15.25;;;;;;;15.26;84.67;101920.28;5079263;28;20038;-75
2021/08/12 02:46:29;;;;;;;18.98;13.65;;;;;;;15.26;83.33;101926.44;5051776;28;20074;-75
2021/08/12 02:48:55;;;;;;;22.27;15.55;;;;;;;15.19;84.44;101926.75;5045968;28;20040;-75
2021/08/12 02:51:20;;;;;;;22.27;15.05;;;;;;;14.98;84.54;101929.38;5045506;28;20023;-75
2021/08/12 02:53:46;;;;;;;18.35;13.88;;;;;;;14.91;84.95;101928.78;5045959;28;20052;-74
2021/08/12 02:56:11;;;;;;;18.48;14.90;;;;;;;14.87;85.47;101924.56;5045358;28;20189;-75
2021/08/12 02:58:38;;;;;;;22.67;15.43;;;;;;;14.84;85.74;101923.81;5030397;28;20033;-75
2021/08/12 03:01:04;;;;;;;19.38;14.15;;;;;;;14.75;85.96;101917.16;5047907;28;20032;-75
2021/08/12 03:03:29;;;;;;;15.80;13.60;;;;;;;14.78;85.67;101917.88;5048458;28;20107;-75
2021/08/12 03:05:55;;;;;;;17.73;14.55;;;;;;;14.78;84.71;101923.16;5065127;28;20220;-74
2021/08/12 03:08:21;;;;;;;23.75;13.55;;;;;;;14.50;84.79;101925.19;5061491;28;20025;-75
2021/08/12 03:10:46;;;;;;;17.75;13.35;;;;;;;14.40;85.92;101928.16;5045721;28;20073;-75
2021/08/12 03:13:12;;;;;;;16.58;14.07;;;;;;;14.36;87.21;101931.00;5045585;28;20050;-75
2021/08/12 03:15:40;;;;;;;26.80;15.02;;;;;;;14.53;87.17;101935.59;5046735;28;20033;-75
2021/08/12 03:18:06;;;;;;;16.33;12.88;;;;;;;14.50;86.17;101933.09;5080697;28;20036;-75
2021/08/12 03:20:31;;;;;;;15.32;12.95;;;;;;;14.47;85.06;101935.84;5081752;28;20354;-75
2021/08/12 03:22:57;;;;;;;18.10;13.35;;;;;;;14.48;85.72;101937.53;5050149;28;20035;-75
2021/08/12 03:25:23;;;;;;;17.55;12.55;;;;;;;14.39;86.39;101930.88;5061374;28;20052;-75
2021/08/12 03:27:48;;;;;;;18.23;11.98;;;;;;;14.47;85.36;101947.22;5076920;28;20031;-75
2021/08/12 03:30:13;;;;;;;13.25;11.68;;;;;;;14.50;84.31;101941.00;5062554;28;20037;-75
2021/08/12 03:32:39;;;;;;;16.90;12.52;;;;;;;14.28;87.07;101941.84;5070210;28;20043;-75
2021/08/12 03:35:05;;;;;;;18.95;12.98;;;;;;;14.38;86.71;101944.97;5062050;28;20096;-75
2021/08/12 03:37:30;;;;;;;22.17;14.80;;;;;;;14.54;86.01;101932.88;5065193;28;20350;-75
2021/08/12 03:39:55;;;;;;;23.77;15.10;;;;;;;14.44;87.14;101933.31;5080267;28;20043;-75
2021/08/12 03:42:21;;;;;;;27.70;18.48;;;;;;;14.50;86.86;101936.56;5090785;28;20036;-75
2021/08/12 03:44:46;;;;;;;21.38;16.88;;;;;;;14.49;87.49;101928.72;5028583;28;20028;-75
2021/08/12 03:47:12;;;;;;;32.58;19.95;;;;;;;14.65;86.50;101926.38;5085536;28;20027;-75
2021/08/12 03:49:37;;;;;;;34.08;20.05;;;;;;;14.70;86.51;101937.59;5099939;28;20040;-75
2021/08/12 03:52:03;;;;;;;38.25;22.48;;;;;;;14.73;87.60;101943.56;5077713;28;20024;-75
2021/08/12 03:54:29;;;;;;;34.20;21.90;;;;;;;14.81;87.03;101934.50;5081245;28;20123;-74
2021/08/12 03:56:54;;;;;;;32.50;20.42;;;;;;;14.76;87.15;101935.53;5080149;28;20032;-75
2021/08/12 03:59:21;;;;;;;43.22;25.25;;;;;;;14.89;87.63;101932.41;5064335;28;20512;-75
2021/08/12 04:01:47;;;;;;;38.38;21.98;;;;;;;14.82;87.54;101933.59;5098893;28;20032;-75
2021/08/12 04:04:12;;;;;;;29.08;20.23;;;;;;;14.87;87.59;101940.38;5081912;28;20032;-74
2021/08/12 04:06:38;;;;;;;30.55;20.40;;;;;;;14.92;86.56;101927.03;5065330;28;20036;-75
2021/08/12 04:09:03;;;;;;;27.45;17.30;;;;;;;14.80;86.46;101938.91;5065638;28;20042;-75
2021/08/12 04:11:28;;;;;;;30.23;16.75;;;;;;;14.74;86.32;101932.13;5084681;28;20016;-75
2021/08/12 04:13:54;;;;;;;19.73;13.80;;;;;;;14.77;85.94;101933.75;5068699;28;20111;-75
2021/08/12 04:16:19;;;;;;;20.33;14.68;;;;;;;14.69;86.06;101933.22;5082431;28;20036;-75
2021/08/12 04:18:45;;;;;;;18.15;15.23;;;;;;;14.65;86.51;101937.75;5079879;28;20035;-75
2021/08/12 04:21:10;;;;;;;21.67;15.75;;;;;;;14.77;86.54;101934.63;5103314;28;20028;-75
2021/08/12 04:23:35;;;;;;;29.58;18.35;;;;;;;14.92;86.06;101941.06;5089162;28;20040;-75
2021/08/12 04:26:01;;;;;;;33.70;20.90;;;;;;;14.92;86.47;101940.22;5064862;28;20102;-75
2021/08/12 04:28:26;;;;;;;32.92;21.25;;;;;;;14.84;86.80;101937.00;5093386;28;20059;-75
2021/08/12 04:30:52;;;;;;;44.28;26.08;;;;;;;14.90;86.96;101932.34;5085016;28;20046;-75
2021/08/12 04:33:17;;;;;;;42.95;24.52;;;;;;;15.06;86.29;101944.88;5063575;28;20151;-75
2021/08/12 04:35:43;;;;;;;50.90;26.75;;;;;;;15.19;86.34;101948.75;5048348;28;20040;-75
2021/08/12 04:38:09;;;;;;;39.63;25.30;;;;;;;15.30;86.44;101938.59;5052326;28;20224;-75
2021/08/12 04:40:34;;;;;;;38.58;24.58;;;;;;;15.35;86.22;101935.72;5080782;28;20284;-75
2021/08/12 04:42:59;;;;;;;47.13;25.83;;;;;;;15.42;85.93;101947.75;5064588;28;20082;-75
2021/08/12 04:45:27;;;;;;;86.75;29.02;;;;;;;15.51;85.94;101951.75;5047367;28;20320;-75
2021/08/12 04:47:57;;;;;;;55.40;26.52;;;;;;;15.39;86.72;101950.53;5093933;28;20321;-75
2021/08/12 04:50:23;;;;;;;63.92;25.45;;;;;;;15.39;87.23;101955.81;5082297;28;20335;-75
2021/08/12 04:52:48;;;;;;;68.15;28.80;;;;;;;15.45;86.88;101957.31;5066593;28;20032;-75
2021/08/12 04:55:14;;;;;;;53.60;26.58;;;;;;;15.49;87.05;101959.75;5083884;28;20036;-75
2021/08/12 04:57:39;;;;;;;56.45;24.58;;;;;;;15.65;85.68;101954.66;5101845;28;20307;-75
2021/08/12 05:00:05;;;;;;;59.58;25.95;;;;;;;15.57;86.16;101961.19;5047787;28;20034;-75
2021/08/12 05:02:31;;;;;;;54.92;27.45;;;;;;;15.58;85.96;101960.28;5081732;28;20045;-75
2021/08/12 05:04:56;;;;;;;45.60;25.20;;;;;;;15.67;86.12;101952.81;5081499;28;20066;-75
2021/08/12 05:07:21;;;;;;;50.58;25.20;;;;;;;15.76;85.65;101948.09;5081713;28;20036;-75
2021/08/12 05:09:47;;;;;;;52.22;25.40;;;;;;;15.89;84.99;101942.16;5097513;28;20353;-75
2021/08/12 05:12:17;;;;;;;39.03;25.40;;;;;;;16.00;84.96;101940.81;5081536;28;20036;-75
2021/08/12 05:14:42;;;;;;;54.38;24.92;;;;;;;16.23;83.66;101945.91;5096593;28;20123;-75
2021/08/12 05:17:08;;;;;;;38.63;24.40;;;;;;;16.41;83.24;101935.38;5102168;28;20028;-75
2021/08/12 05:19:33;;;;;;;35.10;23.20;;;;;;;16.47;83.01;101945.66;5087773;28;20048;-75
2021/08/12 05:21:59;;;;;;;37.00;23.88;;;;;;;16.52;82.61;101938.38;5075461;28;20052;-75
2021/08/12 05:24:24;;;;;;;43.63;23.98;;;;;;;16.79;81.82;101928.22;5082667;28;20042;-75
2021/08/12 05:26:49;;;;;;;45.72;24.55;;;;;;;17.12;80.70;101934.56;5065626;28;20056;-75
2021/08/12 05:29:15;;;;;;;39.95;22.70;;;;;;;17.26;79.48;101932.94;5098036;28;20107;-75
2021/08/12 05:31:40;;;;;;;39.47;21.40;;;;;;;17.36;78.99;101945.72;5077339;28;20089;-75
2021/08/12 05:34:06;;;;;;;25.83;17.63;;;;;;;17.60;77.21;101949.72;5067316;28;20093;-75
2021/08/12 05:36:31;;;;;;;12.93;9.43;;;;;;;19.36;67.60;101942.56;5081112;28;20038;-75
2021/08/12 05:38:58;;;;;;;4.10;3.72;;;;;;;20.47;63.02;101946.31;5059124;28;20032;-75
2021/08/12 05:41:24;;;;;;;4.53;4.13;;;;;;;20.63;62.40;101940.84;5078985;28;20036;-75
2021/08/12 05:43:49;;;;;;;5.50;3.50;;;;;;;20.80;61.47;101945.91;5049212;28;20059;-75
2021/08/12 05:46:14;;;;;;;3.45;3.25;;;;;;;20.87;61.28;101952.53;5081191;28;20272;-75
2021/08/12 05:48:40;;;;;;;9.85;7.45;;;;;;;20.68;62.21;101957.38;5081331;28;20036;-75
2021/08/12 05:51:05;;;;;;;13.95;10.50;;;;;;;20.58;62.66;101959.75;5077616;28;20087;-75
2021/08/12 05:53:31;;;;;;;11.55;7.18;;;;;;;20.92;60.97;101951.38;5062966;28;20327;-75
2021/08/12 05:55:56;;;;;;;8.80;3.50;;;;;;;21.47;59.12;101953.00;5100380;28;20061;-75
2021/08/12 05:58:22;;;;;;;10.55;8.48;;;;;;;21.46;59.49;101943.28;5100959;28;20031;-75
2021/08/12 06:00:47;;;;;;;4.72;2.90;;;;;;;21.84;57.99;101953.06;5063962;28;20060;-75
2021/08/12 06:03:13;;;;;;;8.43;4.15;;;;;;;21.88;57.94;101956.38;5080483;28;20327;-75
2021/08/12 06:05:38;;;;;;;9.07;3.42;;;;;;;22.07;57.57;101959.44;5074838;28;20124;-75
2021/08/12 06:08:05;;;;;;;8.27;3.72;;;;;;;22.23;57.10;101957.38;5083106;28;20052;-74
2021/08/12 06:10:31;;;;;;;4.07;3.30;;;;;;;22.41;56.38;101963.22;5065076;28;20388;-75
2021/08/12 06:12:57;;;;;;;5.72;3.55;;;;;;;22.52;55.82;101964.22;5049514;28;20016;-75
2021/08/12 06:15:23;;;;;;;6.15;4.30;;;;;;;22.67;55.72;101963.09;5082192;28;20106;-75
2021/08/12 06:17:49;;;;;;;11.90;7.95;;;;;;;22.87;54.97;101963.44;5082757;28;20254;-75
2021/08/12 06:20:14;;;;;;;11.75;8.00;;;;;;;23.10;56.55;101967.06;5082081;28;20028;-75
2021/08/12 06:22:39;;;;;;;4.68;3.13;;;;;;;23.09;54.51;101970.72;5065224;28;20346;-75
2021/08/12 06:25:05;;;;;;;6.90;3.67;;;;;;;23.03;54.70;101969.31;5081284;28;20031;-75
2021/08/12 06:27:30;;;;;;;6.63;5.55;;;;;;;23.52;53.27;101970.06;5064189;28;20036;-75
2021/08/12 06:29:56;;;;;;;6.63;3.70;;;;;;;23.61;53.05;101965.81;5100035;28;20028;-75
2021/08/12 06:32:22;;;;;;;11.50;6.90;;;;;;;23.64;53.55;101960.25;5079775;28;20223;-75
2021/08/12 06:34:48;;;;;;;9.70;3.25;;;;;;;23.58;53.06;101956.22;5081216;28;20071;-75
2021/08/12 06:37:13;;;;;;;10.80;6.60;;;;;;;23.64;54.99;101962.91;5072826;28;20032;-75
2021/08/12 06:39:38;;;;;;;11.70;8.38;;;;;;;23.94;53.05;101963.19;5062578;28;20020;-75
2021/08/12 06:42:04;;;;;;;9.38;7.70;;;;;;;23.87;52.31;101972.69;5064971;28;20254;-76
2021/08/12 06:44:30;;;;;;;8.75;3.20;;;;;;;24.18;51.74;101962.19;5066386;28;20028;-76
2021/08/12 06:46:56;;;;;;;5.40;4.90;;;;;;;24.27;50.99;101963.28;5081663;28;20029;-75
2021/08/12 06:49:21;;;;;;;11.05;7.63;;;;;;;24.12;51.70;101968.91;5067637;28;20036;-75
2021/08/12 06:51:46;;;;;;;8.18;5.63;;;;;;;24.29;53.12;101974.72;5080546;28;20215;-76
2021/08/12 06:54:12;;;;;;;8.63;6.85;;;;;;;24.79;52.24;101974.22;5085497;28;20032;-75
2021/08/12 06:56:38;;;;;;;10.60;8.10;;;;;;;24.93;49.86;101968.56;5088154;28;20150;-75
2021/08/12 06:59:03;;;;;;;10.07;6.43;;;;;;;24.45;50.81;101967.13;5077053;28;20028;-76
2021/08/12 07:01:29;;;;;;;7.90;6.00;;;;;;;24.64;50.52;101966.47;5069765;28;20332;-75
2021/08/12 07:03:55;;;;;;;8.38;3.55;;;;;;;24.91;49.51;101966.00;5062773;28;20378;-75
2021/08/12 07:06:20;;;;;;;7.80;5.20;;;;;;;24.82;50.12;101965.94;5084323;28;20200;-76
2021/08/12 07:08:46;;;;;;;6.55;4.57;;;;;;;25.09;49.97;101970.78;5062848;28;20039;-76
2021/08/12 07:11:11;;;;;;;5.13;4.03;;;;;;;24.66;50.51;101969.88;5065459;28;20036;-76
2021/08/12 07:13:37;;;;;;;7.45;3.38;;;;;;;24.33;51.31;101960.94;5066743;28;20127;-74
2021/08/12 07:16:02;;;;;;;11.75;4.15;;;;;;;24.63;51.05;101964.78;5076868;28;20106;-75
2021/08/12 07:18:28;;;;;;;9.18;5.55;;;;;;;25.47;48.70;101970.22;5066235;28;20033;-74
2021/08/12 07:20:53;;;;;;;7.40;4.88;;;;;;;24.73;50.44;101970.22;5087649;28;20051;-74
2021/08/12 07:23:18;;;;;;;6.68;3.53;;;;;;;25.10;49.06;101970.66;5060975;28;20029;-75
2021/08/12 07:25:44;;;;;;;9.68;3.22;;;;;;;24.99;49.30;101975.22;5080548;28;20174;-75
2021/08/12 07:28:12;;;;;;;4.72;3.58;;;;;;;24.88;50.42;101976.97;5079620;28;20089;-75
2021/08/12 07:30:38;;;;;;;9.57;4.50;;;;;;;25.81;48.19;101972.66;5066662;28;20029;-75
2021/08/12 07:33:03;;;;;;;7.15;3.38;;;;;;;25.06;49.28;101973.72;5065674;28;20366;-75
2021/08/12 07:35:29;;;;;;;5.32;3.63;;;;;;;24.93;49.04;101981.94;5063297;28;20090;-75
2021/08/12 07:37:54;;;;;;;7.55;3.15;;;;;;;25.76;47.32;101979.38;5063171;28;20040;-75
2021/08/12 07:40:20;;;;;;;6.28;3.30;;;;;;;24.82;49.49;101979.31;5078081;28;20038;-75
2021/08/12 07:42:45;;;;;;;4.72;2.75;;;;;;;25.58;47.61;101982.72;5095844;28;20044;-75
2021/08/12 07:45:11;;;;;;;7.68;3.05;;;;;;;24.99;50.12;101981.41;5094169;28;20036;-75
2021/08/12 07:47:36;;;;;;;4.00;2.60;;;;;;;25.45;48.49;101976.69;5071005;28;20316;-75
2021/08/12 07:50:08;;;;;;;3.55;3.03;;;;;;;25.24;49.05;101980.22;5098792;28;20027;-75
2021/08/12 07:52:34;;;;;;;6.57;3.08;;;;;;;25.50;48.06;101979.81;5078071;28;20320;-75
2021/08/12 07:54:59;;;;;;;5.10;2.90;;;;;;;25.77;47.82;101981.09;5049328;28;20040;-75
2021/08/12 07:57:25;;;;;;;7.78;2.88;;;;;;;26.71;45.31;101979.00;5067403;28;20042;-75
2021/08/12 07:59:50;;;;;;;4.03;2.72;;;;;;;26.24;46.05;101984.13;5093285;28;20040;-75
2021/08/12 08:02:16;;;;;;;6.72;3.40;;;;;;;26.34;46.38;101981.44;5087838;28;20029;-75
2021/08/12 08:04:43;;;;;;;4.47;2.53;;;;;;;26.62;44.12;101975.31;5084830;28;20086;-75
2021/08/12 08:07:08;;;;;;;3.97;2.55;;;;;;;26.17;46.08;101972.22;5064636;28;20223;-75
2021/08/12 08:09:34;;;;;;;11.45;2.80;;;;;;;26.05;46.45;101977.72;5092074;28;20077;-75
2021/08/12 08:12:00;;;;;;;3.25;2.67;;;;;;;26.15;45.74;101982.25;5049981;28;20117;-73
2021/08/12 08:14:25;;;;;;;4.35;2.40;;;;;;;25.58;47.57;101987.22;5073485;28;20020;-72
2021/08/12 08:16:51;;;;;;;5.20;2.63;;;;;;;25.52;47.97;101983.22;5070939;28;20062;-73
2021/08/12 08:19:16;;;;;;;3.17;2.30;;;;;;;25.51;48.16;101988.75;5089898;28;20038;-73
2021/08/12 08:21:41;;;;;;;5.70;2.22;;;;;;;25.51;47.80;101989.56;5090741;28;20041;-73
2021/08/12 08:24:07;;;;;;;4.85;2.33;;;;;;;25.52;44.26;101991.25;5091596;28;20024;-73
2021/08/12 08:26:33;;;;;;;9.55;2.40;;;;;;;26.29;44.46;101989.94;5088340;28;20078;-72
2021/08/12 08:28:58;;;;;;;7.00;2.55;;;;;;;26.49;45.12;101984.59;5068984;28;20075;-73
2021/08/12 08:31:23;;;;;;;4.72;2.00;;;;;;;26.67;44.23;101993.69;5098135;28;20065;-73
2021/08/12 08:33:49;;;;;;;5.90;2.40;;;;;;;26.67;44.96;101987.47;5068827;28;20032;-72
2021/08/12 08:36:14;;;;;;;3.60;2.28;;;;;;;26.36;44.76;101996.44;5073898;28;20226;-73
2021/08/12 08:38:40;;;;;;;4.25;2.50;;;;;;;26.97;44.26;101991.84;5088373;28;20039;-72
2021/08/12 08:41:06;;;;;;;4.72;2.65;;;;;;;26.34;45.96;101993.06;5084665;28;20061;-73
2021/08/12 08:43:32;;;;;;;4.03;2.50;;;;;;;27.50;42.86;101999.44;5069681;28;20387;-73
2021/08/12 08:45:58;;;;;;;7.38;2.50;;;;;;;26.81;44.71;101993.28;5078820;28;20028;-73
2021/08/12 08:48:24;;;;;;;4.15;2.45;;;;;;;26.75;44.53;101993.00;5075557;28;20035;-73
2021/08/12 08:50:50;;;;;;;3.13;2.20;;;;;;;27.48;42.63;101997.91;5078422;28;20234;-73
2021/08/12 08:53:16;;;;;;;5.60;2.67;;;;;;;27.20;43.63;101997.78;5073646;28;20195;-72
2021/08/12 08:55:41;;;;;;;3.83;2.20;;;;;;;27.75;40.61;101997.09;5071350;28;20306;-73
2021/08/12 08:58:07;;;;;;;4.93;2.42;;;;;;;26.53;45.22;101989.53;5067005;28;20034;-73
2021/08/12 09:00:32;;;;;;;13.27;3.05;;;;;;;25.17;47.57;101992.41;5047055;28;20020;-73
2021/08/12 09:02:58;;;;;;;12.50;3.10;;;;;;;26.09;46.54;101993.53;5063811;28;20048;-73
2021/08/12 09:05:23;;;;;;;12.38;2.67;;;;;;;25.99;46.17;101988.13;5070362;28;20047;-73
2021/08/12 09:07:50;;;;;;;10.85;2.78;;;;;;;27.03;43.41;101996.66;5047917;28;20033;-73
2021/08/12 09:10:16;;;;;;;10.98;2.88;;;;;;;26.18;46.27;101992.72;5095885;28;20033;-72
2021/08/12 09:12:42;;;;;;;7.70;2.80;;;;;;;27.06;40.43;101993.69;5077450;28;20341;-72
2021/08/12 09:15:08;;;;;;;10.98;3.00;;;;;;;27.20;43.04;101998.63;5074448;28;20036;-72
2021/08/12 09:17:34;;;;;;;9.82;2.58;;;;;;;26.97;43.91;102002.59;5099474;28;20028;-73
2021/08/12 09:20:29;;;;;;;12.52;2.85;;;;;;;26.91;43.91;102004.03;5078817;28;20398;-73
2021/08/12 09:23:00;;;;;;;8.32;2.83;;;;;;;26.74;44.54;101996.66;5064610;28;20170;-73
2021/08/12 09:25:30;;;;;;;15.07;3.20;;;;;;;27.85;41.80;102002.44;5094090;28;20051;-72
2021/08/12 09:28:23;;;;;;;6.75;2.40;;;;;;;29.03;39.63;101993.50;5067244;28;20036;-73
2021/08/12 09:30:58;;;;;;;11.75;2.70;;;;;;;28.55;40.24;101996.63;5093772;28;20204;-73
2021/08/12 09:33:24;;;;;;;6.32;2.65;;;;;;;28.21;40.96;101997.22;5084108;28;20099;-73
2021/08/12 09:35:49;;;;;;;14.18;3.30;;;;;;;28.26;40.38;101997.63;5065113;28;20033;-73
2021/08/12 09:38:15;;;;;;;9.10;2.78;;;;;;;27.87;42.08;102009.41;5082309;28;20028;-74
2021/08/12 09:40:41;;;;;;;9.70;2.45;;;;;;;28.86;40.11;101997.06;5087298;28;20028;-74
2021/08/12 09:43:08;;;;;;;7.47;2.72;;;;;;;28.32;40.94;102000.56;5065407;28;20223;-73
2021/08/12 09:45:34;;;;;;;6.95;2.40;;;;;;;27.92;41.53;102011.66;5062837;28;20034;-74
2021/08/12 09:48:13;;;;;;;8.05;2.20;;;;;;;30.20;37.38;102005.72;5080087;28;20032;-73
2021/08/12 09:50:39;;;;;;;9.25;2.40;;;;;;;28.40;40.76;102012.41;5074701;28;20071;-73
2021/08/12 09:53:05;;;;;;;7.65;2.65;;;;;;;28.74;40.11;102009.91;5087570;28;20247;-73
2021/08/12 09:55:40;;;;;;;5.57;2.42;;;;;;;28.92;40.12;102004.53;5040914;28;20048;-73
2021/08/12 09:58:07;;;;;;;3.38;2.28;;;;;;;29.82;38.75;102004.38;5057292;28;20074;-74
2021/08/12 10:00:39;;;;;;;9.15;3.13;;;;;;;31.88;35.01;102000.00;5087489;28;20040;-73
2021/08/12 10:03:27;;;;;;;3.60;2.08;;;;;;;32.62;34.33;101988.78;5078777;28;20036;-73
2021/08/12 10:05:56;;;;;;;3.95;2.15;;;;;;;33.02;34.12;101989.47;5088530;28;20135;-74
2021/08/12 10:08:26;;;;;;;4.47;2.80;;;;;;;32.60;34.05;101994.41;5054792;28;20031;-73
2021/08/12 10:10:51;;;;;;;4.45;2.28;;;;;;;32.78;33.38;102002.25;5066329;28;20043;-73
2021/08/12 10:13:17;;;;;;;5.90;2.20;;;;;;;32.80;33.51;101996.63;5067600;28;20033;-73
2021/08/12 10:15:48;;;;;;;4.35;2.38;;;;;;;32.67;33.27;101992.69;5063346;28;20025;-73
2021/08/12 10:18:14;;;;;;;6.55;2.25;;;;;;;32.64;34.00;101998.44;5064993;28;20103;-73
2021/08/12 10:20:40;;;;;;;10.15;2.83;;;;;;;31.77;34.84;101998.50;5052587;28;20032;-73
2021/08/12 10:23:05;;;;;;;7.70;2.42;;;;;;;32.76;34.04;102003.44;5087747;28;20238;-73
2021/08/12 10:25:34;;;;;;;6.93;2.00;;;;;;;33.39;32.48;101999.50;5070845;28;20044;-73
2021/08/12 10:28:06;;;;;;;9.00;2.85;;;;;;;32.29;35.08;102006.09;5085510;28;20206;-73
2021/08/12 10:30:32;;;;;;;2.88;2.60;;;;;;;32.39;33.82;102005.03;5082346;28;20037;-73
2021/08/12 10:32:58;;;;;;;7.43;2.70;;;;;;;31.99;34.68;101996.91;5072463;28;20039;-73
2021/08/12 10:35:24;;;;;;;3.97;2.58;;;;;;;32.18;34.53;101995.63;5087290;28;20028;-73
2021/08/12 10:37:53;;;;;;;9.00;2.80;;;;;;;33.00;33.77;101997.81;5065539;28;20107;-73
2021/08/12 10:40:19;;;;;;;6.65;3.10;;;;;;;31.98;34.39;102002.50;5074918;28;20042;-73
2021/08/12 10:42:45;;;;;;;4.28;2.50;;;;;;;31.05;36.62;101996.59;5070320;28;20040;-73
2021/08/12 10:45:12;;;;;;;4.90;2.33;;;;;;;31.12;36.77;101994.88;5046842;28;20030;-72
2021/08/12 10:47:44;;;;;;;4.28;2.70;;;;;;;32.45;35.92;101993.47;5080808;28;20077;-73
2021/08/12 10:50:22;;;;;;;6.00;2.63;;;;;;;30.57;37.44;101990.97;5082220;28;20045;-73
2021/08/12 10:53:11;;;;;;;8.65;2.72;;;;;;;29.95;38.40;101991.25;5080206;28;20068;-73
2021/08/12 10:55:56;;;;;;;10.93;2.97;;;;;;;29.34;39.37;101994.94;5083457;28;20235;-73
2021/08/12 11:00:47;;;;;;;3.20;2.90;;;;;;;27.99;42.90;101995.78;5083845;28;20095;-73
2021/08/12 11:03:12;;;;;;;10.60;3.88;;;;;;;27.77;44.54;101997.81;5062082;28;20028;-73
2021/08/12 11:05:59;;;;;;;10.63;2.90;;;;;;;27.75;44.33;102003.34;5062854;28;20032;-73
2021/08/12 11:08:50;;;;;;;10.02;4.10;;;;;;;27.63;45.68;102007.19;5095816;28;20099;-73
2021/08/12 11:11:21;;;;;;;4.32;3.00;;;;;;;27.94;44.87;102005.16;5094003;28;20044;-72
2021/08/12 11:13:47;;;;;;;10.18;3.60;;;;;;;27.42;44.87;102002.03;5087792;28;20313;-72
2021/08/12 11:16:13;;;;;;;4.50;3.20;;;;;;;27.65;45.00;102005.22;5075604;28;20095;-72
2021/08/12 11:18:52;;;;;;;4.30;3.40;;;;;;;27.45;45.27;102007.13;5060009;28;20043;-73